sensor_id;sensor_type;location;lat;lon;timestamp;pressure;altitude;pressure_sealevel;temperature;humidity
39197;BME280;42889;51.112;13.772;2022-09-01T00:02:27;99659.25;;;11.77;100.00
39197;BME280;42889;51.112;13.772;2022-09-01T00:04:54;99659.53;;;11.74;100.00
39197;BME280;42889;51.112;13.772;2022-09-01T00:07:26;99656.47;;;11.69;100.00
39197;BME280;42889;51.112;13.772;2022-09-01T00:09:55;99660.88;;;11.70;100.00
39197;BME280;42889;51.112;13.772;2022-09-01T00:12:22;99662.47;;;11.63;100.00
39197;BME280;42889;51.112;13.772;2022-09-01T00:14:51;99667.25;;;11.69;100.00
39197;BME280;42889;51.112;13.772;2022-09-01T00:17:17;99667.25;;;11.69;100.00
39197;BME280;42889;51.112;13.772;2022-09-01T00:19:44;99666.78;;;11.74;100.00
39197;BME280;42889;51.112;13.772;2022-09-01T00:22:10;99663.63;;;11.60;100.00
39197;BME280;42889;51.112;13.772;2022-09-01T00:24:37;99671.03;;;11.76;100.00
39197;BME280;42889;51.112;13.772;2022-09-01T00:27:04;99668.47;;;11.57;100.00
39197;BME280;42889;51.112;13.772;2022-09-01T00:29:30;99669.03;;;11.60;100.00
39197;BME280;42889;51.112;13.772;2022-09-01T00:31:57;99669.63;;;11.54;100.00
39197;BME280;42889;51.112;13.772;2022-09-01T00:34:24;99667.56;;;11.66;100.00
39197;BME280;42889;51.112;13.772;2022-09-01T00:36:51;99673.34;;;11.71;100.00
39197;BME280;42889;51.112;13.772;2022-09-01T00:39:18;99679.81;;;11.78;100.00
39197;BME280;42889;51.112;13.772;2022-09-01T00:41:44;99670.72;;;11.61;100.00
39197;BME280;42889;51.112;13.772;2022-09-01T00:44:15;99671.56;;;11.62;100.00
39197;BME280;42889;51.112;13.772;2022-09-01T00:46:48;99670.25;;;11.48;100.00
39197;BME280;42889;51.112;13.772;2022-09-01T00:51:53;99657.22;;;11.44;100.00
39197;BME280;42889;51.112;13.772;2022-09-01T00:54:38;99662.50;;;11.35;100.00
39197;BME280;42889;51.112;13.772;2022-09-01T00:57:07;99652.13;;;11.41;100.00
39197;BME280;42889;51.112;13.772;2022-09-01T00:59:34;99652.09;;;11.23;100.00
39197;BME280;42889;51.112;13.772;2022-09-01T01:02:02;99649.59;;;11.39;100.00
39197;BME280;42889;51.112;13.772;2022-09-01T01:04:28;99644.94;;;11.31;100.00
39197;BME280;42889;51.112;13.772;2022-09-01T01:06:58;99645.69;;;11.24;100.00
39197;BME280;42889;51.112;13.772;2022-09-01T01:09:33;99643.16;;;11.22;100.00
39197;BME280;42889;51.112;13.772;2022-09-01T01:12:02;99643.81;;;11.34;100.00
39197;BME280;42889;51.112;13.772;2022-09-01T01:14:30;99647.56;;;11.41;100.00
39197;BME280;42889;51.112;13.772;2022-09-01T01:17:00;99649.25;;;11.24;100.00
39197;BME280;42889;51.112;13.772;2022-09-01T01:19:41;99652.13;;;11.41;100.00
39197;BME280;42889;51.112;13.772;2022-09-01T01:22:30;99652.44;;;11.38;100.00
39197;BME280;42889;51.112;13.772;2022-09-01T01:25:19;99654.97;;;11.39;100.00
39197;BME280;42889;51.112;13.772;2022-09-01T01:27:48;99653.91;;;11.32;100.00
39197;BME280;42889;51.112;13.772;2022-09-01T01:30:17;99657.28;;;11.34;100.00
39197;BME280;42889;51.112;13.772;2022-09-01T01:32:44;99656.31;;;11.25;100.00
39197;BME280;42889;51.112;13.772;2022-09-01T01:35:14;99656.59;;;11.32;100.00
39197;BME280;42889;51.112;13.772;2022-09-01T01:37:43;99652.66;;;11.26;100.00
39197;BME280;42889;51.112;13.772;2022-09-01T01:40:13;99658.16;;;11.25;100.00
39197;BME280;42889;51.112;13.772;2022-09-01T01:42:46;99653.53;;;11.17;100.00
39197;BME280;42889;51.112;13.772;2022-09-01T01:45:16;99652.59;;;11.08;100.00
39197;BME280;42889;51.112;13.772;2022-09-01T01:47:44;99655.88;;;11.30;100.00
39197;BME280;42889;51.112;13.772;2022-09-01T01:50:12;99666.13;;;11.26;100.00
39197;BME280;42889;51.112;13.772;2022-09-01T01:52:40;99659.97;;;11.34;100.00
39197;BME280;42889;51.112;13.772;2022-09-01T01:55:10;99662.59;;;11.44;100.00
39197;BME280;42889;51.112;13.772;2022-09-01T01:57:41;99665.47;;;11.60;100.00
39197;BME280;42889;51.112;13.772;2022-09-01T02:00:19;99675.78;;;11.65;100.00
39197;BME280;42889;51.112;13.772;2022-09-01T02:02:56;99662.84;;;11.50;100.00
39197;BME280;42889;51.112;13.772;2022-09-01T02:05:29;99660.59;;;11.46;100.00
39197;BME280;42889;51.112;13.772;2022-09-01T02:08:06;99659.19;;;11.42;100.00
39197;BME280;42889;51.112;13.772;2022-09-01T02:10:37;99656.44;;;11.33;100.00
39197;BME280;42889;51.112;13.772;2022-09-01T02:13:05;99656.59;;;11.32;100.00
39197;BME280;42889;51.112;13.772;2022-09-01T02:15:36;99650.59;;;11.38;100.00
39197;BME280;42889;51.112;13.772;2022-09-01T02:18:11;99658.34;;;11.41;100.00
39197;BME280;42889;51.112;13.772;2022-09-01T02:20:40;99648.75;;;11.56;100.00
39197;BME280;42889;51.112;13.772;2022-09-01T02:23:08;99657.81;;;11.38;100.00
39197;BME280;42889;51.112;13.772;2022-09-01T02:25:39;99651.31;;;11.30;100.00
39197;BME280;42889;51.112;13.772;2022-09-01T02:28:32;99649.25;;;11.42;100.00
39197;BME280;42889;51.112;13.772;2022-09-01T02:31:03;99640.78;;;11.37;100.00
39197;BME280;42889;51.112;13.772;2022-09-01T02:33:30;99643.81;;;11.34;100.00
39197;BME280;42889;51.112;13.772;2022-09-01T02:36:00;99639.28;;;11.52;100.00
39197;BME280;42889;51.112;13.772;2022-09-01T02:38:27;99647.97;;;11.64;100.00
39197;BME280;42889;51.112;13.772;2022-09-01T02:40:55;99641.63;;;11.65;100.00
39197;BME280;42889;51.112;13.772;2022-09-01T02:43:24;99640.38;;;11.59;100.00
39197;BME280;42889;51.112;13.772;2022-09-01T02:45:55;99650.78;;;11.72;100.00
39197;BME280;42889;51.112;13.772;2022-09-01T02:48:31;99643.97;;;11.68;100.00
39197;BME280;42889;51.112;13.772;2022-09-01T02:51:10;99645.22;;;11.74;100.00
39197;BME280;42889;51.112;13.772;2022-09-01T02:53:38;99640.53;;;11.76;100.00
39197;BME280;42889;51.112;13.772;2022-09-01T02:56:06;99641.75;;;11.64;100.00
39197;BME280;42889;51.112;13.772;2022-09-01T02:58:41;99648.75;;;11.56;100.00
39197;BME280;42889;51.112;13.772;2022-09-01T03:01:17;99652.41;;;11.65;100.00
39197;BME280;42889;51.112;13.772;2022-09-01T03:03:50;99651.84;;;11.44;100.00
39197;BME280;42889;51.112;13.772;2022-09-01T03:06:17;99654.59;;;11.52;100.00
39197;BME280;42889;51.112;13.772;2022-09-01T03:08:47;99656.09;;;11.37;100.00
39197;BME280;42889;51.112;13.772;2022-09-01T03:11:13;99656.28;;;11.35;100.00
39197;BME280;42889;51.112;13.772;2022-09-01T03:13:40;99657.88;;;11.28;100.00
39197;BME280;42889;51.112;13.772;2022-09-01T03:16:08;99658.97;;;11.35;100.00
39197;BME280;42889;51.112;13.772;2022-09-01T03:18:35;99652.88;;;11.33;100.00
39197;BME280;42889;51.112;13.772;2022-09-01T03:21:02;99653.97;;;11.40;100.00
39197;BME280;42889;51.112;13.772;2022-09-01T03:23:29;99642.50;;;11.38;100.00
39197;BME280;42889;51.112;13.772;2022-09-01T03:26:00;99650.88;;;11.35;100.00
39197;BME280;42889;51.112;13.772;2022-09-01T03:28:26;99652.88;;;11.33;100.00
39197;BME280;42889;51.112;13.772;2022-09-01T03:30:55;99657.34;;;11.42;100.00
39197;BME280;42889;51.112;13.772;2022-09-01T03:33:24;99650.44;;;11.40;100.00
39197;BME280;42889;51.112;13.772;2022-09-01T03:35:50;99658.97;;;11.35;100.00
39197;BME280;42889;51.112;13.772;2022-09-01T03:38:17;99651.00;;;11.43;100.00
39197;BME280;42889;51.112;13.772;2022-09-01T03:41:03;99652.44;;;11.38;100.00
39197;BME280;42889;51.112;13.772;2022-09-01T03:43:32;99644.19;;;11.39;100.00
39197;BME280;42889;51.112;13.772;2022-09-01T03:46:02;99640.44;;;11.50;100.00
39197;BME280;42889;51.112;13.772;2022-09-01T03:48:29;99651.88;;;11.34;100.00
39197;BME280;42889;51.112;13.772;2022-09-01T03:50:58;99650.03;;;11.34;100.00
39197;BME280;42889;51.112;13.772;2022-09-01T03:53:31;99649.34;;;11.32;100.00
39197;BME280;42889;51.112;13.772;2022-09-01T03:55:58;99638.56;;;11.32;100.00
39197;BME280;42889;51.112;13.772;2022-09-01T03:58:25;99642.19;;;11.41;100.00
39197;BME280;42889;51.112;13.772;2022-09-01T04:00:54;99646.88;;;11.39;100.00
39197;BME280;42889;51.112;13.772;2022-09-01T04:03:23;99651.84;;;11.44;100.00
39197;BME280;42889;51.112;13.772;2022-09-01T04:05:54;99650.28;;;11.41;100.00
39197;BME280;42889;51.112;13.772;2022-09-01T04:08:22;99651.38;;;11.48;100.00
39197;BME280;42889;51.112;13.772;2022-09-01T04:11:01;99648.41;;;11.42;100.00
39197;BME280;42889;51.112;13.772;2022-09-01T04:24:18;99653.06;;;11.67;100.00
39197;BME280;42889;51.112;13.772;2022-09-01T04:26:46;99655.63;;;11.69;100.00
39197;BME280;42889;51.112;13.772;2022-09-01T04:29:15;99649.69;;;11.65;100.00
39197;BME280;42889;51.112;13.772;2022-09-01T04:31:44;99656.22;;;11.63;100.00
39197;BME280;42889;51.112;13.772;2022-09-01T04:34:11;99660.56;;;11.73;100.00
39197;BME280;42889;51.112;13.772;2022-09-01T04:36:43;99660.38;;;11.75;100.00
39197;BME280;42889;51.112;13.772;2022-09-01T04:39:10;99659.09;;;11.61;100.00
39197;BME280;42889;51.112;13.772;2022-09-01T04:41:41;99663.56;;;11.70;100.00
39197;BME280;42889;51.112;13.772;2022-09-01T04:44:08;99668.88;;;11.62;100.00
39197;BME280;42889;51.112;13.772;2022-09-01T04:46:37;99657.44;;;11.50;100.00
39197;BME280;42889;51.112;13.772;2022-09-01T04:49:06;99664.47;;;11.43;100.00
39197;BME280;42889;51.112;13.772;2022-09-01T04:51:40;99661.25;;;11.30;100.00
39197;BME280;42889;51.112;13.772;2022-09-01T04:54:08;99666.22;;;11.52;100.00
39197;BME280;42889;51.112;13.772;2022-09-01T04:56:42;99673.38;;;11.44;100.00
39197;BME280;42889;51.112;13.772;2022-09-01T04:59:11;99665.44;;;11.42;100.00
39197;BME280;42889;51.112;13.772;2022-09-01T05:01:38;99672.84;;;11.40;100.00
39197;BME280;42889;51.112;13.772;2022-09-01T05:04:18;99672.28;;;11.37;100.00
39197;BME280;42889;51.112;13.772;2022-09-01T05:06:49;99664.75;;;11.58;100.00
39197;BME280;42889;51.112;13.772;2022-09-01T05:09:17;99671.50;;;11.54;100.00
39197;BME280;42889;51.112;13.772;2022-09-01T05:11:44;99680.72;;;11.51;100.00
39197;BME280;42889;51.112;13.772;2022-09-01T05:14:12;99681.16;;;11.47;100.00
39197;BME280;42889;51.112;13.772;2022-09-01T05:16:39;99682.66;;;11.77;100.00
39197;BME280;42889;51.112;13.772;2022-09-01T05:19:11;99683.00;;;11.92;100.00
39197;BME280;42889;51.112;13.772;2022-09-01T05:21:44;99689.56;;;11.89;100.00
39197;BME280;42889;51.112;13.772;2022-09-01T05:24:17;99684.94;;;11.99;100.00
39197;BME280;42889;51.112;13.772;2022-09-01T05:26:45;99682.63;;;12.04;100.00
39197;BME280;42889;51.112;13.772;2022-09-01T05:29:13;99684.56;;;11.94;100.00
39197;BME280;42889;51.112;13.772;2022-09-01T05:31:46;99680.28;;;11.92;100.00
39197;BME280;42889;51.112;13.772;2022-09-01T05:34:16;99679.09;;;12.04;100.00
39197;BME280;42889;51.112;13.772;2022-09-01T05:36:54;99684.69;;;12.28;100.00
39197;BME280;42889;51.112;13.772;2022-09-01T05:39:22;99681.34;;;12.34;100.00
39197;BME280;42889;51.112;13.772;2022-09-01T05:41:50;99695.75;;;12.43;100.00
39197;BME280;42889;51.112;13.772;2022-09-01T05:44:19;99690.53;;;12.68;100.00
39197;BME280;42889;51.112;13.772;2022-09-01T05:46:48;99696.56;;;12.87;99.48
39197;BME280;42889;51.112;13.772;2022-09-01T05:49:16;99693.78;;;12.79;100.00
39197;BME280;42889;51.112;13.772;2022-09-01T05:51:46;99689.03;;;12.73;100.00
39197;BME280;42889;51.112;13.772;2022-09-01T05:54:19;99701.06;;;12.79;100.00
39197;BME280;42889;51.112;13.772;2022-09-01T05:56:48;99688.84;;;12.92;100.00
39197;BME280;42889;51.112;13.772;2022-09-01T05:59:15;99694.56;;;13.24;97.97
39197;BME280;42889;51.112;13.772;2022-09-01T06:01:52;99698.91;;;13.16;98.99
39197;BME280;42889;51.112;13.772;2022-09-01T06:04:20;99696.97;;;13.35;97.77
39197;BME280;42889;51.112;13.772;2022-09-01T06:06:48;99704.22;;;13.26;100.00
39197;BME280;42889;51.112;13.772;2022-09-01T06:09:42;99699.19;;;13.31;100.00
39197;BME280;42889;51.112;13.772;2022-09-01T06:12:10;99699.25;;;13.56;98.63
39197;BME280;42889;51.112;13.772;2022-09-01T06:14:45;99703.81;;;13.55;99.66
39197;BME280;42889;51.112;13.772;2022-09-01T06:17:13;99702.66;;;13.58;97.48
39197;BME280;42889;51.112;13.772;2022-09-01T06:19:42;99704.84;;;13.62;95.01
39197;BME280;42889;51.112;13.772;2022-09-01T06:22:09;99701.81;;;13.57;96.01
39197;BME280;42889;51.112;13.772;2022-09-01T06:24:37;99708.59;;;13.69;98.00
39197;BME280;42889;51.112;13.772;2022-09-01T06:27:07;99704.91;;;13.87;95.75
39197;BME280;42889;51.112;13.772;2022-09-01T06:29:37;99709.50;;;13.86;93.87
39197;BME280;42889;51.112;13.772;2022-09-01T06:32:08;99710.19;;;13.96;95.11
39197;BME280;42889;51.112;13.772;2022-09-01T06:34:38;99708.66;;;13.94;94.03
39197;BME280;42889;51.112;13.772;2022-09-01T06:37:06;99702.38;;;13.93;96.10
39197;BME280;42889;51.112;13.772;2022-09-01T06:39:33;99711.38;;;14.02;95.51
39197;BME280;42889;51.112;13.772;2022-09-01T06:41:59;99701.41;;;14.03;96.04
39197;BME280;42889;51.112;13.772;2022-09-01T06:44:31;99713.91;;;14.12;95.51
39197;BME280;42889;51.112;13.772;2022-09-01T06:46:58;99712.56;;;14.08;94.24
39197;BME280;42889;51.112;13.772;2022-09-01T06:49:27;99718.50;;;14.28;94.50
39197;BME280;42889;51.112;13.772;2022-09-01T06:52:01;99711.22;;;14.28;92.38
39197;BME280;42889;51.112;13.772;2022-09-01T06:54:29;99713.91;;;14.28;95.72
39197;BME280;42889;51.112;13.772;2022-09-01T06:57:01;99716.81;;;14.43;93.51
39197;BME280;42889;51.112;13.772;2022-09-01T06:59:49;99721.41;;;14.67;94.95
39197;BME280;42889;51.112;13.772;2022-09-01T07:02:18;99722.41;;;14.66;91.96
39197;BME280;42889;51.112;13.772;2022-09-01T07:04:49;99719.56;;;14.67;90.30
39197;BME280;42889;51.112;13.772;2022-09-01T07:07:17;99726.44;;;14.86;90.62
39197;BME280;42889;51.112;13.772;2022-09-01T07:10:04;99724.38;;;15.05;87.61
39197;BME280;42889;51.112;13.772;2022-09-01T07:12:54;99731.47;;;15.14;87.38
39197;BME280;42889;51.112;13.772;2022-09-01T07:15:41;99728.94;;;15.12;88.01
39197;BME280;42889;51.112;13.772;2022-09-01T07:18:29;99728.91;;;15.20;84.59
39197;BME280;42889;51.112;13.772;2022-09-01T07:20:56;99735.97;;;15.38;80.49
39197;BME280;42889;51.112;13.772;2022-09-01T07:23:43;99739.19;;;15.41;83.60
39197;BME280;42889;51.112;13.772;2022-09-01T07:26:30;99740.03;;;15.42;83.63
39197;BME280;42889;51.112;13.772;2022-09-01T07:29:04;99732.00;;;15.57;83.20
39197;BME280;42889;51.112;13.772;2022-09-01T07:31:36;99733.84;;;15.64;83.30
39197;BME280;42889;51.112;13.772;2022-09-01T07:34:24;99731.06;;;15.80;80.38
39197;BME280;42889;51.112;13.772;2022-09-01T07:37:07;99732.41;;;15.85;80.74
39197;BME280;42889;51.112;13.772;2022-09-01T07:39:53;99732.97;;;15.72;81.63
39197;BME280;42889;51.112;13.772;2022-09-01T07:42:21;99741.63;;;15.98;83.28
39197;BME280;42889;51.112;13.772;2022-09-01T07:45:10;99739.59;;;16.00;81.14
39197;BME280;42889;51.112;13.772;2022-09-01T07:47:53;99737.31;;;16.35;78.85
39197;BME280;42889;51.112;13.772;2022-09-01T07:50:20;99738.66;;;16.16;80.96
39197;BME280;42889;51.112;13.772;2022-09-01T07:53:10;99730.56;;;16.31;80.65
39197;BME280;42889;51.112;13.772;2022-09-01T07:55:39;99740.22;;;16.33;79.32
39197;BME280;42889;51.112;13.772;2022-09-01T07:58:09;99729.13;;;16.43;80.05
39197;BME280;42889;51.112;13.772;2022-09-01T08:00:35;99741.59;;;16.52;78.06
39197;BME280;42889;51.112;13.772;2022-09-01T08:03:02;99744.78;;;16.56;76.20
39197;BME280;42889;51.112;13.772;2022-09-01T08:05:29;99741.53;;;16.60;77.12
39197;BME280;42889;51.112;13.772;2022-09-01T08:07:57;99744.56;;;16.66;76.06
39197;BME280;42889;51.112;13.772;2022-09-01T08:10:23;99740.28;;;16.71;76.97
39197;BME280;42889;51.112;13.772;2022-09-01T08:12:50;99741.78;;;16.51;76.34
39197;BME280;42889;51.112;13.772;2022-09-01T08:15:24;99743.66;;;16.73;75.71
39197;BME280;42889;51.112;13.772;2022-09-01T08:18:12;99744.25;;;16.83;75.41
39197;BME280;42889;51.112;13.772;2022-09-01T08:20:41;99740.25;;;17.09;74.77
39197;BME280;42889;51.112;13.772;2022-09-01T08:23:16;99743.16;;;17.07;76.21
39197;BME280;42889;51.112;13.772;2022-09-01T08:25:46;99755.00;;;17.15;75.50
39197;BME280;42889;51.112;13.772;2022-09-01T08:28:14;99751.59;;;16.98;72.89
39197;BME280;42889;51.112;13.772;2022-09-01T08:30:42;99757.31;;;17.18;75.39
39197;BME280;42889;51.112;13.772;2022-09-01T08:33:18;99748.50;;;17.30;73.31
39197;BME280;42889;51.112;13.772;2022-09-01T08:35:47;99747.84;;;17.28;72.54
39197;BME280;42889;51.112;13.772;2022-09-01T08:38:14;99747.31;;;17.48;74.12
39197;BME280;42889;51.112;13.772;2022-09-01T08:40:48;99752.25;;;17.59;71.08
39197;BME280;42889;51.112;13.772;2022-09-01T08:46:04;99750.22;;;17.31;72.19
39197;BME280;42889;51.112;13.772;2022-09-01T08:48:40;99754.81;;;17.75;75.42
39197;BME280;42889;51.112;13.772;2022-09-01T08:51:51;99751.94;;;17.98;72.01
39197;BME280;42889;51.112;13.772;2022-09-01T08:54:27;99748.16;;;18.35;68.64
39197;BME280;42889;51.112;13.772;2022-09-01T08:57:08;99742.81;;;18.27;67.70
39197;BME280;42889;51.112;13.772;2022-09-01T08:59:36;99752.75;;;18.13;67.88
39197;BME280;42889;51.112;13.772;2022-09-01T09:05:28;99751.47;;;18.52;69.26
39197;BME280;42889;51.112;13.772;2022-09-01T09:16:07;99758.13;;;19.20;67.69
39197;BME280;42889;51.112;13.772;2022-09-01T09:18:57;99755.84;;;19.24;65.59
39197;BME280;42889;51.112;13.772;2022-09-01T09:21:40;99753.38;;;19.64;64.84
39197;BME280;42889;51.112;13.772;2022-09-01T09:27:30;99762.16;;;20.07;63.83
39197;BME280;42889;51.112;13.772;2022-09-01T09:29:59;99757.19;;;20.37;63.39
39197;BME280;42889;51.112;13.772;2022-09-01T09:35:38;99742.44;;;22.16;59.12
39197;BME280;42889;51.112;13.772;2022-09-01T09:38:20;99737.34;;;23.07;54.26
39197;BME280;42889;51.112;13.772;2022-09-01T09:44:29;99739.38;;;23.19;51.72
39197;BME280;42889;51.112;13.772;2022-09-01T09:46:56;99738.75;;;23.17;49.66
39197;BME280;42889;51.112;13.772;2022-09-01T09:49:29;99740.78;;;23.46;50.81
39197;BME280;42889;51.112;13.772;2022-09-01T09:54:37;99734.34;;;23.89;53.71
39197;BME280;42889;51.112;13.772;2022-09-01T09:59:40;99725.03;;;24.08;48.93
39197;BME280;42889;51.112;13.772;2022-09-01T10:02:38;99729.81;;;24.43;47.24
39197;BME280;42889;51.112;13.772;2022-09-01T10:05:21;99740.38;;;24.46;47.26
39197;BME280;42889;51.112;13.772;2022-09-01T10:07:48;99730.00;;;24.30;48.94
39197;BME280;42889;51.112;13.772;2022-09-01T10:12:58;99738.09;;;25.43;45.37
39197;BME280;42889;51.112;13.772;2022-09-01T10:15:29;99738.78;;;24.92;45.66
39197;BME280;42889;51.112;13.772;2022-09-01T10:18:07;99732.31;;;24.75;43.13
39197;BME280;42889;51.112;13.772;2022-09-01T10:21:16;99735.97;;;24.57;44.89
39197;BME280;42889;51.112;13.772;2022-09-01T10:23:47;99736.72;;;24.04;46.94
39197;BME280;42889;51.112;13.772;2022-09-01T10:26:34;99739.78;;;23.77;45.96
39197;BME280;42889;51.112;13.772;2022-09-01T10:31:47;99736.00;;;24.08;48.77
39197;BME280;42889;51.112;13.772;2022-09-01T10:34:16;99737.41;;;24.59;48.41
39197;BME280;42889;51.112;13.772;2022-09-01T10:36:46;99724.50;;;25.65;43.60
39197;BME280;42889;51.112;13.772;2022-09-01T10:39:22;99718.91;;;26.74;44.06
39197;BME280;42889;51.112;13.772;2022-09-01T10:42:00;99722.03;;;26.33;42.05
39197;BME280;42889;51.112;13.772;2022-09-01T10:44:37;99722.03;;;26.33;40.73
39197;BME280;42889;51.112;13.772;2022-09-01T10:47:25;99719.81;;;27.47;38.39
39197;BME280;42889;51.112;13.772;2022-09-01T10:49:58;99721.22;;;28.16;36.19
39197;BME280;42889;51.112;13.772;2022-09-01T10:55:39;99722.91;;;28.71;33.75
39197;BME280;42889;51.112;13.772;2022-09-01T11:01:15;99716.84;;;30.06;33.70
39197;BME280;42889;51.112;13.772;2022-09-01T11:04:02;99722.22;;;29.65;31.33
39197;BME280;42889;51.112;13.772;2022-09-01T11:09:41;99719.44;;;28.04;37.89
39197;BME280;42889;51.112;13.772;2022-09-01T11:12:35;99718.50;;;27.94;35.99
39197;BME280;42889;51.112;13.772;2022-09-01T11:30:48;99713.66;;;26.90;36.70
39197;BME280;42889;51.112;13.772;2022-09-01T11:36:34;99720.66;;;24.01;43.42
39197;BME280;42889;51.112;13.772;2022-09-01T11:39:14;99711.19;;;23.85;43.43
39197;BME280;42889;51.112;13.772;2022-09-01T11:42:18;99720.06;;;23.62;44.54
39197;BME280;42889;51.112;13.772;2022-09-01T11:44:48;99711.03;;;23.80;46.60
39197;BME280;42889;51.112;13.772;2022-09-01T11:50:22;99715.06;;;23.59;45.64
39197;BME280;42889;51.112;13.772;2022-09-01T11:52:54;99711.84;;;23.44;45.80
39197;BME280;42889;51.112;13.772;2022-09-01T11:55:35;99713.03;;;22.86;46.29
39197;BME280;42889;51.112;13.772;2022-09-01T11:58:03;99712.13;;;22.67;48.12
39197;BME280;42889;51.112;13.772;2022-09-01T12:00:32;99713.53;;;22.20;50.08
39197;BME280;42889;51.112;13.772;2022-09-01T12:03:02;99710.22;;;22.04;49.30
39197;BME280;42889;51.112;13.772;2022-09-01T12:05:32;99710.56;;;21.76;50.42
39197;BME280;42889;51.112;13.772;2022-09-01T12:08:03;99715.75;;;21.91;50.23
39197;BME280;42889;51.112;13.772;2022-09-01T12:10:39;99708.91;;;22.14;50.28
39197;BME280;42889;51.112;13.772;2022-09-01T12:13:08;99698.78;;;22.21;47.97
39197;BME280;42889;51.112;13.772;2022-09-01T12:15:36;99702.44;;;23.33;49.82
39197;BME280;42889;51.112;13.772;2022-09-01T12:18:30;99692.91;;;24.62;45.83
39197;BME280;42889;51.112;13.772;2022-09-01T12:20:58;99698.88;;;24.59;43.52
39197;BME280;42889;51.112;13.772;2022-09-01T12:26:00;99692.09;;;23.72;43.07
39197;BME280;42889;51.112;13.772;2022-09-01T12:28:28;99694.97;;;23.22;44.59
39197;BME280;42889;51.112;13.772;2022-09-01T12:31:02;99693.44;;;22.82;45.05
39197;BME280;42889;51.112;13.772;2022-09-01T12:33:33;99694.84;;;22.42;48.56
39197;BME280;42889;51.112;13.772;2022-09-01T12:38:39;99691.22;;;22.41;44.83
39197;BME280;42889;51.112;13.772;2022-09-01T12:41:22;99688.06;;;22.44;48.39
39197;BME280;42889;51.112;13.772;2022-09-01T12:43:49;99692.25;;;22.47;48.49
39197;BME280;42889;51.112;13.772;2022-09-01T12:46:41;99690.81;;;22.06;47.85
39197;BME280;42889;51.112;13.772;2022-09-01T12:49:18;99690.41;;;22.02;49.92
39197;BME280;42889;51.112;13.772;2022-09-01T12:51:46;99688.88;;;22.20;48.87
39197;BME280;42889;51.112;13.772;2022-09-01T12:54:14;99688.34;;;21.98;53.02
39197;BME280;42889;51.112;13.772;2022-09-01T12:56:47;99681.69;;;22.19;49.07
39197;BME280;42889;51.112;13.772;2022-09-01T12:59:25;99679.97;;;22.24;50.79
39197;BME280;42889;51.112;13.772;2022-09-01T13:02:25;99675.78;;;22.22;48.71
39197;BME280;42889;51.112;13.772;2022-09-01T13:04:53;99672.25;;;22.40;48.18
39197;BME280;42889;51.112;13.772;2022-09-01T13:07:20;99674.03;;;22.27;47.97
39197;BME280;42889;51.112;13.772;2022-09-01T13:09:46;99659.03;;;21.98;37.08
39197;BME280;42889;51.112;13.772;2022-09-01T13:12:18;99668.97;;;21.93;40.97
39197;BME280;42889;51.112;13.772;2022-09-01T13:14:45;99668.28;;;22.04;43.37
39197;BME280;42889;51.112;13.772;2022-09-01T13:17:12;99665.31;;;22.87;41.43
39197;BME280;42889;51.112;13.772;2022-09-01T13:19:40;99664.16;;;23.38;40.69
39197;BME280;42889;51.112;13.772;2022-09-01T13:22:06;99662.56;;;23.49;39.36
39197;BME280;42889;51.112;13.772;2022-09-01T13:24:33;99653.56;;;23.42;43.32
39197;BME280;42889;51.112;13.772;2022-09-01T13:27:00;99660.47;;;23.07;44.71
39197;BME280;42889;51.112;13.772;2022-09-01T13:29:47;99660.47;;;22.64;43.47
39197;BME280;42889;51.112;13.772;2022-09-01T13:32:14;99661.19;;;22.28;44.14
39197;BME280;42889;51.112;13.772;2022-09-01T13:34:47;99655.09;;;22.19;44.15
39197;BME280;42889;51.112;13.772;2022-09-01T13:37:15;99659.97;;;22.17;45.28
39197;BME280;42889;51.112;13.772;2022-09-01T13:39:42;99645.63;;;22.22;44.34
39197;BME280;42889;51.112;13.772;2022-09-01T13:42:08;99655.75;;;22.21;44.40
39197;BME280;42889;51.112;13.772;2022-09-01T13:44:35;99657.59;;;21.89;44.70
39197;BME280;42889;51.112;13.772;2022-09-01T13:47:02;99658.41;;;21.51;46.04
39197;BME280;42889;51.112;13.772;2022-09-01T13:49:49;99658.00;;;21.48;47.49
39197;BME280;42889;51.112;13.772;2022-09-01T13:52:37;99660.44;;;21.76;48.64
39197;BME280;42889;51.112;13.772;2022-09-01T13:55:05;99649.00;;;21.79;46.82
39197;BME280;42889;51.112;13.772;2022-09-01T13:57:32;99656.41;;;21.78;45.66
39197;BME280;42889;51.112;13.772;2022-09-01T14:00:04;99652.91;;;21.65;47.90
39197;BME280;42889;51.112;13.772;2022-09-01T14:02:31;99657.66;;;21.38;47.35
39197;BME280;42889;51.112;13.772;2022-09-01T14:04:58;99649.66;;;21.23;49.24
39197;BME280;42889;51.112;13.772;2022-09-01T14:07:24;99656.03;;;21.10;48.87
39197;BME280;42889;51.112;13.772;2022-09-01T14:09:51;99661.94;;;20.81;48.81
39197;BME280;42889;51.112;13.772;2022-09-01T14:12:17;99644.66;;;21.07;48.11
39197;BME280;42889;51.112;13.772;2022-09-01T14:14:44;99655.66;;;20.73;47.51
39197;BME280;42889;51.112;13.772;2022-09-01T14:17:30;99643.63;;;21.01;48.96
39197;BME280;42889;51.112;13.772;2022-09-01T14:19:57;99642.06;;;21.38;48.13
39197;BME280;42889;51.112;13.772;2022-09-01T14:22:23;99631.63;;;21.60;45.49
39197;BME280;42889;51.112;13.772;2022-09-01T14:24:50;99639.31;;;21.83;42.86
39197;BME280;42889;51.112;13.772;2022-09-01T14:27:17;99634.25;;;21.80;40.04
39197;BME280;42889;51.112;13.772;2022-09-01T14:29:48;99639.88;;;21.92;41.08
39197;BME280;42889;51.112;13.772;2022-09-01T14:32:20;99644.25;;;21.99;42.94
39197;BME280;42889;51.112;13.772;2022-09-01T14:34:53;99640.38;;;21.75;42.03
39197;BME280;42889;51.112;13.772;2022-09-01T14:37:20;99637.25;;;21.72;43.37